createdAt,value
2018-12-18T00:02:19.701Z,19.60
2018-12-18T00:04:45.697Z,21.50
2018-12-18T00:07:11.680Z,18.40
2018-12-18T00:09:37.644Z,19.67
2018-12-18T00:12:03.784Z,20.00
2018-12-18T00:14:29.746Z,19.97
2018-12-18T00:16:55.744Z,19.70
2018-12-18T00:19:21.696Z,19.83
2018-12-18T00:21:47.656Z,20.27
2018-12-18T00:24:13.650Z,19.30
2018-12-18T00:26:39.724Z,19.60
2018-12-18T00:29:05.705Z,19.63
2018-12-18T00:31:33.465Z,19.13
2018-12-18T00:33:59.461Z,20.03
2018-12-18T00:36:25.412Z,19.63
2018-12-18T00:38:51.392Z,19.43
2018-12-18T00:41:17.360Z,19.57
2018-12-18T00:43:43.343Z,20.70
2018-12-18T00:46:09.319Z,20.23
2018-12-18T00:48:35.905Z,21.03
2018-12-18T00:51:06.639Z,20.37
2018-12-18T00:53:32.926Z,20.30
2018-12-18T00:55:58.927Z,19.87
2018-12-18T00:58:24.991Z,20.67
2018-12-18T01:00:51.094Z,20.33
2018-12-18T01:03:17.197Z,19.90
2018-12-18T01:05:43.210Z,20.00
2018-12-18T01:08:09.203Z,20.13
2018-12-18T01:10:35.178Z,19.90
2018-12-18T01:13:01.163Z,19.20
2018-12-18T01:15:27.150Z,19.40
2018-12-18T01:17:53.146Z,20.53
2018-12-18T01:20:19.100Z,20.60
2018-12-18T01:22:45.104Z,20.57
2018-12-18T01:25:11.058Z,20.60
2018-12-18T01:27:37.062Z,21.43
2018-12-18T01:30:03.630Z,21.03
2018-12-18T01:32:29.583Z,19.70
2018-12-18T01:34:55.597Z,20.77
2018-12-18T01:37:21.565Z,20.00
2018-12-18T01:39:47.561Z,20.93
2018-12-18T01:42:13.529Z,20.80
2018-12-18T01:44:39.508Z,20.60
2018-12-18T01:47:05.545Z,20.27
2018-12-18T01:49:31.546Z,21.87
2018-12-18T01:51:57.531Z,20.30
2018-12-18T01:54:23.628Z,20.33
2018-12-18T01:56:49.718Z,21.10
2018-12-18T01:59:15.711Z,19.00
2018-12-18T02:01:41.678Z,21.07
2018-12-18T02:04:07.672Z,21.67
2018-12-18T02:06:33.692Z,21.93
2018-12-18T02:09:00.245Z,22.30
2018-12-18T02:11:26.190Z,21.27
2018-12-18T02:13:52.270Z,21.50
2018-12-18T02:16:18.302Z,21.30
2018-12-18T02:18:44.304Z,20.33
2018-12-18T02:21:10.263Z,20.23
2018-12-18T02:23:36.259Z,21.27
2018-12-18T02:26:02.271Z,22.30
2018-12-18T02:28:28.364Z,20.87
2018-12-18T02:30:54.330Z,21.10
2018-12-18T02:33:20.280Z,21.73
2018-12-18T02:35:46.306Z,21.70
2018-12-18T02:38:12.279Z,20.63
2018-12-18T02:40:38.269Z,20.60
2018-12-18T02:43:04.294Z,21.10
2018-12-18T02:45:30.291Z,20.83
2018-12-18T02:47:56.295Z,20.40
2018-12-18T02:50:22.422Z,20.70
2018-12-18T02:52:48.427Z,22.07
2018-12-18T02:55:14.538Z,21.93
2018-12-18T02:57:40.585Z,20.77
2018-12-18T03:00:06.627Z,20.67
2018-12-18T03:02:32.647Z,21.90
2018-12-18T03:04:58.652Z,21.27
2018-12-18T03:07:24.626Z,21.10
2018-12-18T03:09:50.629Z,20.27
2018-12-18T03:12:16.572Z,20.67
2018-12-18T03:14:42.574Z,20.93
2018-12-18T03:17:08.551Z,20.20
2018-12-18T03:19:34.525Z,22.30
2018-12-18T03:22:00.562Z,21.33
2018-12-18T03:24:26.523Z,21.20
2018-12-18T03:26:52.555Z,20.67
2018-12-18T03:29:19.047Z,21.03
2018-12-18T03:31:47.079Z,22.00
2018-12-18T03:34:13.048Z,20.60
2018-12-18T03:36:39.058Z,21.73
2018-12-18T03:39:05.422Z,21.37
2018-12-18T03:41:31.396Z,21.50
2018-12-18T03:43:57.407Z,21.43
2018-12-18T03:46:24.052Z,21.00
2018-12-18T03:48:50.074Z,20.43
2018-12-18T03:51:16.067Z,19.93
2018-12-18T03:53:42.046Z,20.43
2018-12-18T03:56:08.063Z,21.33
2018-12-18T03:58:34.014Z,20.30
2018-12-18T04:01:00.012Z,21.43
2018-12-18T04:03:26.094Z,20.43
2018-12-18T04:05:52.081Z,21.30
2018-12-18T04:08:18.083Z,21.93
2018-12-18T04:10:44.048Z,21.20
2018-12-18T04:13:10.014Z,20.67
2018-12-18T04:15:36.107Z,21.83
2018-12-18T04:18:02.089Z,20.73
2018-12-18T04:20:28.055Z,21.73
2018-12-18T04:22:54.110Z,21.47
2018-12-18T04:25:20.226Z,21.63
2018-12-18T04:27:46.341Z,20.83
2018-12-18T04:30:12.326Z,20.07
2018-12-18T04:32:38.342Z,21.37
2018-12-18T04:35:04.341Z,20.30
2018-12-18T04:37:30.293Z,20.30
2018-12-18T04:39:56.295Z,20.37
2018-12-18T04:42:22.284Z,20.67
2018-12-18T04:44:48.292Z,20.37
2018-12-18T04:47:14.246Z,19.40
2018-12-18T04:49:40.233Z,19.90
2018-12-18T04:52:06.256Z,19.70
2018-12-18T04:54:32.252Z,20.23
2018-12-18T04:56:58.241Z,18.90
2018-12-18T04:59:24.296Z,19.83
2018-12-18T05:01:50.355Z,19.50
2018-12-18T05:04:16.355Z,19.77
2018-12-18T05:06:42.337Z,18.83
2018-12-18T05:09:08.315Z,18.70
2018-12-18T05:11:34.322Z,18.47
2018-12-18T05:14:00.348Z,19.57
2018-12-18T05:16:26.705Z,18.20
2018-12-18T05:18:52.689Z,18.43
2018-12-18T05:21:18.644Z,18.90
2018-12-18T05:23:44.649Z,18.40
2018-12-18T05:26:10.752Z,18.50
2018-12-18T05:28:36.846Z,17.23
2018-12-18T05:31:02.853Z,17.40
2018-12-18T05:33:28.973Z,18.00
2018-12-18T05:35:54.938Z,18.13
2018-12-18T05:38:20.959Z,18.23
2018-12-18T05:40:46.910Z,17.47
2018-12-18T05:43:12.916Z,17.27
2018-12-18T05:45:38.924Z,17.97
2018-12-18T05:48:04.882Z,17.47
2018-12-18T05:50:30.913Z,17.93
2018-12-18T05:52:56.869Z,17.70
2018-12-18T05:55:22.910Z,17.10
2018-12-18T05:57:48.978Z,17.37
2018-12-18T06:00:14.974Z,17.80
2018-12-18T06:02:41.094Z,16.97
2018-12-18T06:05:07.058Z,17.87
2018-12-18T06:07:33.070Z,16.90
2018-12-18T06:09:59.030Z,17.53
2018-12-18T06:12:25.042Z,16.63
2018-12-18T06:14:50.999Z,18.63
2018-12-18T06:17:16.977Z,19.03
2018-12-18T06:19:42.994Z,18.17
2018-12-18T06:22:08.963Z,19.20
2018-12-18T06:24:34.963Z,17.80
2018-12-18T06:27:00.953Z,17.10
2018-12-18T06:29:26.960Z,17.30
2018-12-18T06:31:52.926Z,16.80
2018-12-18T06:34:18.900Z,17.00
2018-12-18T06:36:44.912Z,16.10
2018-12-18T06:39:10.878Z,16.17
2018-12-18T06:41:36.927Z,15.67
2018-12-18T06:44:03.056Z,15.63
2018-12-18T06:46:35.868Z,16.30
2018-12-18T06:49:01.844Z,15.37
2018-12-18T06:51:27.893Z,15.33
2018-12-18T06:53:53.842Z,16.27
2018-12-18T06:56:19.813Z,15.40
2018-12-18T06:58:45.807Z,15.30
2018-12-18T07:01:11.766Z,14.70
2018-12-18T07:03:37.768Z,14.87
2018-12-18T07:06:03.770Z,13.63
2018-12-18T07:08:29.825Z,13.27
2018-12-18T07:10:55.823Z,14.20
2018-12-18T07:13:21.789Z,14.60
2018-12-18T07:15:47.811Z,14.17
2018-12-18T07:18:13.763Z,13.40
2018-12-18T07:20:39.760Z,13.53
2018-12-18T07:23:05.741Z,13.70
2018-12-18T07:25:31.769Z,13.00
2018-12-18T07:27:57.795Z,13.10
2018-12-18T07:30:23.761Z,13.23
2018-12-18T07:32:49.773Z,12.47
2018-12-18T07:35:15.734Z,12.63
2018-12-18T07:37:41.735Z,12.60
2018-12-18T07:40:07.699Z,12.90
2018-12-18T07:42:33.713Z,12.00
2018-12-18T07:44:59.774Z,12.63
2018-12-18T07:47:25.726Z,11.70
2018-12-18T07:49:51.739Z,11.57
2018-12-18T07:52:17.725Z,11.87
2018-12-18T07:54:43.855Z,11.63
2018-12-18T07:57:09.834Z,11.63
2018-12-18T07:59:35.826Z,11.60
2018-12-18T08:02:01.834Z,11.00
2018-12-18T08:04:27.839Z,11.63
2018-12-18T08:06:53.843Z,11.47
2018-12-18T08:09:20.048Z,9.97
2018-12-18T08:11:46.126Z,11.27
2018-12-18T08:14:12.084Z,11.17
2018-12-18T08:16:38.064Z,11.13
2018-12-18T08:19:04.038Z,10.87
2018-12-18T08:21:30.067Z,9.90
2018-12-18T08:23:56.032Z,10.03
2018-12-18T08:26:22.122Z,10.40
2018-12-18T08:28:48.119Z,10.10
2018-12-18T08:31:14.076Z,10.93
2018-12-18T08:33:40.073Z,11.10
2018-12-18T08:36:06.031Z,11.50
2018-12-18T08:38:32.035Z,9.67
2018-12-18T08:40:58.011Z,11.10
2018-12-18T08:43:24.035Z,10.97
2018-12-18T08:45:49.991Z,11.67
2018-12-18T08:48:16.617Z,11.53
2018-12-18T08:50:42.612Z,11.10
2018-12-18T08:53:08.592Z,10.70
2018-12-18T08:55:34.667Z,10.80
2018-12-18T08:58:00.715Z,10.17
2018-12-18T09:00:26.764Z,11.43
2018-12-18T09:02:52.740Z,10.60
2018-12-18T09:05:18.740Z,10.53
2018-12-18T09:07:44.704Z,11.00
2018-12-18T09:10:10.749Z,10.77
2018-12-18T09:12:36.815Z,10.17
2018-12-18T09:15:06.309Z,10.60
2018-12-18T09:17:38.506Z,10.93
2018-12-18T09:20:05.075Z,11.23
2018-12-18T09:22:31.030Z,10.87
2018-12-18T09:24:57.065Z,11.37
2018-12-18T09:27:23.049Z,11.90
2018-12-18T09:29:48.999Z,11.77
2018-12-18T09:32:15.013Z,11.53
2018-12-18T09:34:40.979Z,11.30
2018-12-18T09:37:06.985Z,11.80
2018-12-18T09:39:39.025Z,12.60
2018-12-18T09:42:11.296Z,11.70
2018-12-18T09:44:37.253Z,11.43
2018-12-18T09:47:03.230Z,12.47
2018-12-18T09:49:29.232Z,11.80
2018-12-18T09:51:55.210Z,11.67
2018-12-18T09:54:21.186Z,11.83
2018-12-18T09:56:50.103Z,9.93
2018-12-18T09:59:16.106Z,10.10
2018-12-18T10:01:42.079Z,9.43
2018-12-18T10:04:08.096Z,10.73
2018-12-18T10:06:34.080Z,9.83
2018-12-18T10:09:00.047Z,10.90
2018-12-18T10:11:26.084Z,10.53
2018-12-18T10:13:52.142Z,11.70
2018-12-18T10:16:18.143Z,10.33
2018-12-18T10:18:44.095Z,10.80
2018-12-18T10:21:10.111Z,11.20
2018-12-18T10:23:36.119Z,10.47
2018-12-18T10:26:02.114Z,11.13
2018-12-18T10:28:28.097Z,10.73
2018-12-18T10:30:54.083Z,10.63
2018-12-18T10:33:20.093Z,11.00
2018-12-18T10:35:46.046Z,11.00
2018-12-18T10:38:12.062Z,10.43
2018-12-18T10:40:38.043Z,10.03
2018-12-18T10:43:04.005Z,9.87
2018-12-18T10:45:30.383Z,10.10
2018-12-18T10:47:56.343Z,9.93
2018-12-18T10:50:22.306Z,9.37
2018-12-18T10:52:48.325Z,10.20
2018-12-18T10:55:14.388Z,11.10
2018-12-18T10:57:40.364Z,11.53
2018-12-18T11:00:10.607Z,11.43
2018-12-18T11:02:36.617Z,10.60
2018-12-18T11:05:03.560Z,10.30
2018-12-18T11:07:29.574Z,10.63
2018-12-18T11:09:55.530Z,10.57
2018-12-18T11:12:23.719Z,10.20
2018-12-18T11:14:49.731Z,9.13
2018-12-18T11:17:15.824Z,7.70
2018-12-18T11:19:41.838Z,8.23
2018-12-18T11:22:07.842Z,7.70
2018-12-18T11:24:33.842Z,7.20
2018-12-18T11:26:59.965Z,7.17
2018-12-18T11:29:26.070Z,7.87
2018-12-18T11:31:52.423Z,7.57
2018-12-18T11:34:18.423Z,7.80
2018-12-18T11:36:45.362Z,8.07
2018-12-18T11:39:11.339Z,7.40
2018-12-18T11:41:37.344Z,6.83
2018-12-18T11:44:03.309Z,6.93
2018-12-18T11:46:29.379Z,6.70
2018-12-18T11:48:55.341Z,6.67
2018-12-18T11:51:21.293Z,6.70
2018-12-18T11:53:47.289Z,6.60
2018-12-18T11:56:13.275Z,6.37
2018-12-18T11:58:39.271Z,7.47
2018-12-18T12:01:05.247Z,6.73
2018-12-18T12:03:31.206Z,6.63
2018-12-18T12:05:57.136Z,7.00
2018-12-18T12:08:23.190Z,5.43
2018-12-18T12:10:49.127Z,5.37
2018-12-18T12:13:15.046Z,6.10
2018-12-18T12:15:41.017Z,5.80
2018-12-18T12:18:06.937Z,5.33
2018-12-18T12:20:32.887Z,5.37
2018-12-18T12:22:58.819Z,5.93
2018-12-18T12:25:24.768Z,4.93
2018-12-18T12:27:56.704Z,4.90
2018-12-18T12:30:22.689Z,5.17
2018-12-18T12:32:48.599Z,4.53
2018-12-18T12:35:14.581Z,5.00
2018-12-18T12:37:40.505Z,5.10
2018-12-18T12:40:06.444Z,4.73
2018-12-18T12:42:32.429Z,5.20
2018-12-18T12:44:58.449Z,4.53
2018-12-18T12:47:24.496Z,4.47
2018-12-18T12:49:50.470Z,4.50
2018-12-18T12:52:16.386Z,4.67
2018-12-18T12:54:42.335Z,5.03
2018-12-18T12:57:08.423Z,5.03
2018-12-18T12:59:34.457Z,4.13
2018-12-18T13:02:00.483Z,4.47
2018-12-18T13:04:26.467Z,4.57
2018-12-18T13:06:52.412Z,4.90
2018-12-18T13:09:18.366Z,3.93
2018-12-18T13:11:44.308Z,4.50
2018-12-18T13:14:10.288Z,3.93
2018-12-18T13:16:36.277Z,4.20
2018-12-18T13:19:02.208Z,4.00
2018-12-18T13:21:28.188Z,3.83
2018-12-18T13:23:54.105Z,3.80
2018-12-18T13:26:20.078Z,3.70
2018-12-18T13:28:46.131Z,3.83
2018-12-18T13:31:12.070Z,3.63
2018-12-18T13:33:38.036Z,3.60
2018-12-18T13:36:04.438Z,3.70
2018-12-18T13:38:30.431Z,3.37
2018-12-18T13:40:56.376Z,3.47
2018-12-18T13:43:22.355Z,3.70
2018-12-18T13:45:48.272Z,3.00
2018-12-18T13:48:14.255Z,3.43
2018-12-18T13:50:40.202Z,2.97
2018-12-18T13:53:06.161Z,3.57
2018-12-18T13:55:36.629Z,3.53
2018-12-18T13:58:00.228Z,3.00
2018-12-18T14:00:26.176Z,3.00
2018-12-18T14:02:52.115Z,3.53
2018-12-18T14:05:18.052Z,3.30
2018-12-18T14:07:44.018Z,3.53
2018-12-18T14:10:09.962Z,3.40
2018-12-18T14:12:35.935Z,3.70
2018-12-18T14:15:01.876Z,3.60
2018-12-18T14:17:27.870Z,3.33
2018-12-18T14:19:53.810Z,3.30
2018-12-18T14:22:19.798Z,3.60
2018-12-18T14:24:45.830Z,3.90
2018-12-18T14:27:11.842Z,3.40
2018-12-18T14:29:37.794Z,3.37
2018-12-18T14:32:03.730Z,3.50
2018-12-18T14:34:29.684Z,3.83
2018-12-18T14:36:56.401Z,3.13
2018-12-18T14:39:22.616Z,3.30
2018-12-18T14:41:48.562Z,3.47
2018-12-18T14:44:14.515Z,3.20
2018-12-18T14:46:40.435Z,3.30
2018-12-18T14:49:06.443Z,3.80
2018-12-18T14:51:32.363Z,3.57
2018-12-18T14:53:58.309Z,3.60
2018-12-18T14:56:24.296Z,3.80
2018-12-18T14:58:50.299Z,3.83
2018-12-18T15:01:16.364Z,4.53
2018-12-18T15:03:42.305Z,5.03
2018-12-18T15:06:08.404Z,4.77
2018-12-18T15:08:38.690Z,4.47
2018-12-18T15:11:04.874Z,4.70
2018-12-18T15:13:30.860Z,4.83
2018-12-18T15:15:56.850Z,4.87
2018-12-18T15:18:22.821Z,4.30
2018-12-18T15:20:48.792Z,4.80
2018-12-18T15:23:14.762Z,4.43
2018-12-18T15:25:40.768Z,4.23
2018-12-18T15:28:06.839Z,4.40
2018-12-18T15:30:32.760Z,4.73
2018-12-18T15:32:58.726Z,4.90
2018-12-18T15:35:25.249Z,4.43
2018-12-18T15:37:51.224Z,4.63
2018-12-18T15:40:17.347Z,4.40
2018-12-18T15:42:43.303Z,4.17
2018-12-18T15:45:09.353Z,8.60
2018-12-18T15:47:35.315Z,9.37
2018-12-18T15:50:01.271Z,10.47
2018-12-18T15:52:27.193Z,9.27
2018-12-18T15:54:53.189Z,6.50
2018-12-18T15:57:19.165Z,7.27
2018-12-18T15:59:45.151Z,6.97
2018-12-18T16:02:11.096Z,6.57
2018-12-18T16:04:37.011Z,5.77
2018-12-18T16:07:02.980Z,5.50
2018-12-18T16:09:28.917Z,4.50
2018-12-18T16:11:55.128Z,4.30
2018-12-18T16:14:21.139Z,3.90
2018-12-18T16:16:47.106Z,4.03
2018-12-18T16:19:13.055Z,4.40
2018-12-18T16:21:39.267Z,4.10
2018-12-18T16:24:05.180Z,4.27
2018-12-18T16:26:31.133Z,5.30
2018-12-18T16:28:57.108Z,4.30
2018-12-18T16:31:23.081Z,5.20
2018-12-18T16:33:49.046Z,4.77
2018-12-18T16:36:14.967Z,5.77
2018-12-18T16:38:40.934Z,5.70
2018-12-18T16:41:06.842Z,5.53
2018-12-18T16:43:32.813Z,6.93
2018-12-18T16:45:58.784Z,9.90
2018-12-18T16:48:24.733Z,10.17
2018-12-18T16:50:50.801Z,11.03
2018-12-18T16:53:16.733Z,10.93
2018-12-18T16:55:42.715Z,10.13
2018-12-18T16:58:08.746Z,10.07
2018-12-18T17:00:34.812Z,9.03
2018-12-18T17:03:00.779Z,7.97
2018-12-18T17:05:26.701Z,8.20
2018-12-18T17:07:52.781Z,7.73
2018-12-18T17:10:18.720Z,8.37
2018-12-18T17:12:50.675Z,9.03
2018-12-18T17:15:16.630Z,7.17
2018-12-18T17:17:42.616Z,7.37
2018-12-18T17:20:08.564Z,7.80
2018-12-18T17:22:34.534Z,7.57
2018-12-18T17:25:00.462Z,7.60
2018-12-18T17:27:26.455Z,7.70
2018-12-18T17:29:52.508Z,7.07
2018-12-18T17:32:18.492Z,7.90
2018-12-18T17:34:44.430Z,7.63
2018-12-18T17:37:10.402Z,7.37
2018-12-18T17:39:36.368Z,7.73
2018-12-18T17:42:02.322Z,7.70
2018-12-18T17:44:28.395Z,6.90
2018-12-18T17:46:54.387Z,6.80
2018-12-18T17:49:24.303Z,6.93
2018-12-18T17:51:50.261Z,7.47
2018-12-18T17:54:16.311Z,7.03
2018-12-18T17:56:42.297Z,6.97
2018-12-18T17:59:08.245Z,7.80
2018-12-18T18:01:34.207Z,7.57
2018-12-18T18:04:00.179Z,7.47
2018-12-18T18:06:26.124Z,7.40
2018-12-18T18:08:52.110Z,7.33
2018-12-18T18:11:18.065Z,6.40
2018-12-18T18:13:44.078Z,7.03
2018-12-18T18:16:10.062Z,6.90
2018-12-18T18:18:36.150Z,7.73
2018-12-18T18:21:02.091Z,6.97
2018-12-18T18:23:28.089Z,7.23
2018-12-18T18:25:54.187Z,7.00
2018-12-18T18:28:20.180Z,6.70
2018-12-18T18:30:46.127Z,6.43
2018-12-18T18:33:12.066Z,7.50
2018-12-18T18:35:38.050Z,7.30
2018-12-18T18:38:04.012Z,6.80
2018-12-18T18:40:29.988Z,7.47
2018-12-18T18:42:55.890Z,7.10
2018-12-18T18:45:21.873Z,6.90
2018-12-18T18:47:47.921Z,7.00
2018-12-18T18:50:13.838Z,6.53
2018-12-18T18:52:39.827Z,6.40
2018-12-18T18:55:05.758Z,7.73
2018-12-18T18:57:31.751Z,6.80
2018-12-18T18:59:57.674Z,7.57
2018-12-18T19:02:23.690Z,7.43
2018-12-18T19:04:49.644Z,7.50
2018-12-18T19:07:15.683Z,7.77
2018-12-18T19:09:41.689Z,7.33
2018-12-18T19:12:07.647Z,7.20
2018-12-18T19:14:33.604Z,7.63
2018-12-18T19:16:59.538Z,7.50
2018-12-18T19:19:25.547Z,8.03
2018-12-18T19:21:51.497Z,7.27
2018-12-18T19:24:17.462Z,7.47
2018-12-18T19:26:43.440Z,7.23
2018-12-18T19:29:09.450Z,7.73
2018-12-18T19:31:35.382Z,7.50
2018-12-18T19:34:01.350Z,7.57
2018-12-18T19:36:27.838Z,6.70
2018-12-18T19:38:53.906Z,6.90
2018-12-18T19:41:19.877Z,7.23
2018-12-18T19:43:45.924Z,8.47
2018-12-18T19:46:12.165Z,8.13
2018-12-18T19:48:38.499Z,8.50
2018-12-18T19:51:04.452Z,8.20
2018-12-18T19:53:30.601Z,8.37
2018-12-18T19:55:56.593Z,9.37
2018-12-18T19:58:22.649Z,9.20
2018-12-18T20:00:48.600Z,10.07
2018-12-18T20:03:14.558Z,10.37
2018-12-18T20:05:40.690Z,10.13
2018-12-18T20:08:10.060Z,10.10
2018-12-18T20:10:34.673Z,12.90
2018-12-18T20:13:02.728Z,9.80
2018-12-18T20:15:28.725Z,10.67
2018-12-18T20:17:54.831Z,9.73
2018-12-18T20:20:20.799Z,10.93
2018-12-18T20:22:46.896Z,11.40
2018-12-18T20:25:13.026Z,10.50
2018-12-18T20:27:39.070Z,10.80
2018-12-18T20:30:05.107Z,10.13
2018-12-18T20:32:31.074Z,11.37
2018-12-18T20:34:57.102Z,11.27
2018-12-18T20:37:23.099Z,12.63
2018-12-18T20:39:49.632Z,12.20
2018-12-18T20:42:15.720Z,11.17
2018-12-18T20:44:41.760Z,10.97
2018-12-18T20:47:07.747Z,9.70
2018-12-18T20:49:33.798Z,9.50
2018-12-18T20:51:59.798Z,9.70
2018-12-18T20:54:25.810Z,10.27
2018-12-18T20:56:51.915Z,10.23
2018-12-18T20:59:17.985Z,9.90
2018-12-18T21:01:44.109Z,11.47
2018-12-18T21:04:10.081Z,11.17
2018-12-18T21:06:36.709Z,10.80
2018-12-18T21:09:05.749Z,9.10
2018-12-18T21:11:31.858Z,9.10
2018-12-18T21:13:57.934Z,9.00
2018-12-18T21:16:23.942Z,9.80
2018-12-18T21:18:50.090Z,10.97
2018-12-18T21:21:16.197Z,9.57
2018-12-18T21:23:42.184Z,9.33
2018-12-18T21:26:08.176Z,9.40
2018-12-18T21:28:34.187Z,9.97
2018-12-18T21:31:00.237Z,9.07
2018-12-18T21:33:26.336Z,8.90
2018-12-18T21:35:52.364Z,9.17
2018-12-18T21:38:18.433Z,8.40
2018-12-18T21:40:44.479Z,9.67
2018-12-18T21:43:10.468Z,12.53
2018-12-18T21:45:36.468Z,13.93
2018-12-18T21:48:02.463Z,10.53
2018-12-18T21:50:28.412Z,9.53
2018-12-18T21:52:54.396Z,8.60
2018-12-18T21:55:20.472Z,10.50
2018-12-18T21:57:46.568Z,9.60
2018-12-18T22:00:12.586Z,11.97
2018-12-18T22:02:38.588Z,11.57
2018-12-18T22:05:04.546Z,10.07
2018-12-18T22:07:30.562Z,9.40
2018-12-18T22:09:56.628Z,9.83
2018-12-18T22:12:22.630Z,9.33
2018-12-18T22:14:48.607Z,8.57
2018-12-18T22:17:14.605Z,9.57
2018-12-18T22:19:40.567Z,10.37
2018-12-18T22:22:06.548Z,10.40
2018-12-18T22:24:32.591Z,10.80
2018-12-18T22:26:58.583Z,11.50
2018-12-18T22:29:24.608Z,8.80
2018-12-18T22:31:50.622Z,10.43
2018-12-18T22:34:16.592Z,10.07
2018-12-18T22:36:42.592Z,10.77
2018-12-18T22:39:08.541Z,10.50
2018-12-18T22:41:34.549Z,11.13
2018-12-18T22:44:00.517Z,11.07
2018-12-18T22:46:26.517Z,12.23
2018-12-18T22:48:52.493Z,21.90
2018-12-18T22:51:18.493Z,19.53
2018-12-18T22:53:44.464Z,13.73
2018-12-18T22:56:10.447Z,12.47
2018-12-18T22:58:36.527Z,9.77
2018-12-18T23:01:05.174Z,9.50
2018-12-18T23:03:31.187Z,9.00
2018-12-18T23:05:57.202Z,8.73
2018-12-18T23:08:23.236Z,8.53
2018-12-18T23:10:49.235Z,8.83
2018-12-18T23:13:21.392Z,9.43
2018-12-18T23:15:47.340Z,8.13
2018-12-18T23:18:13.368Z,9.17
2018-12-18T23:20:39.344Z,9.50
2018-12-18T23:23:12.874Z,8.63
2018-12-18T23:25:38.991Z,9.17
2018-12-18T23:28:05.579Z,10.27
2018-12-18T23:30:31.627Z,12.53
2018-12-18T23:32:57.591Z,9.90
2018-12-18T23:35:23.606Z,9.70
2018-12-18T23:37:49.581Z,8.33
2018-12-18T23:40:15.601Z,8.27
2018-12-18T23:42:41.559Z,7.77
2018-12-18T23:45:07.565Z,8.10
2018-12-18T23:47:33.652Z,8.10
2018-12-18T23:50:00.181Z,8.13
2018-12-18T23:52:26.274Z,7.67
2018-12-18T23:54:52.233Z,7.60
2018-12-18T23:57:18.257Z,7.57
2018-12-18T23:59:44.221Z,8.10
